Time;durP1;ratioP1;P1;durP2;ratioP2;P2;SDS_P1;SDS_P2;PMS_P1;PMS_P2;Temp;Humidity;BMP_temperature;BMP_pressure;BME280_temperature;BME280_humidity;BME280_pressure;Samples;Min_cycle;Max_cycle;Signal;HPM_P1;HPM_P2
2022/08/07 00:01:03;;;;;;;2.00;0.80;;;20.30;46.90;;;;;;5058329;28;20541;-48
2022/08/07 00:03:50;;;;;;;1.57;1.00;;;20.20;46.70;;;;;;5058544;28;20623;-48
2022/08/07 00:06:17;;;;;;;1.57;0.80;;;20.20;46.80;;;;;;5054902;28;20481;-48
2022/08/07 00:08:54;;;;;;;1.27;0.93;;;20.10;46.80;;;;;;5053562;28;20860;-48
2022/08/07 00:11:21;;;;;;;1.63;0.67;;;20.20;46.90;;;;;;5055511;28;20978;-48
2022/08/07 00:13:58;;;;;;;0.93;0.70;;;20.20;47.10;;;;;;5059355;28;20541;-48
2022/08/07 00:16:25;;;;;;;1.47;1.00;;;20.20;46.60;;;;;;5041675;28;20457;-48
2022/08/07 00:18:53;;;;;;;1.23;0.90;;;20.10;46.70;;;;;;5054133;28;20487;-47
2022/08/07 00:21:21;;;;;;;1.20;1.03;;;20.10;47.00;;;;;;5052527;28;20549;-47
2022/08/07 00:24:09;;;;;;;3.53;1.10;;;20.20;46.80;;;;;;5053949;28;20508;-48
2022/08/07 00:26:35;;;;;;;0.70;0.70;;;20.10;46.90;;;;;;5056414;28;20893;-48
2022/08/07 00:29:25;;;;;;;1.17;0.67;;;20.10;47.20;;;;;;5058231;28;20845;-47
2022/08/07 00:32:00;;;;;;;2.80;0.90;;;20.10;47.30;;;;;;5055711;28;21005;-48
2022/08/07 00:34:29;;;;;;;1.23;0.90;;;20.10;47.10;;;;;;5055284;28;20508;-48
2022/08/07 00:36:57;;;;;;;0.60;0.60;;;20.10;47.30;;;;;;5056028;28;20465;-47
2022/08/07 00:39:25;;;;;;;1.03;0.53;;;20.00;46.80;;;;;;5070831;28;20904;-47
2022/08/07 00:41:54;;;;;;;0.80;0.60;;;20.00;47.10;;;;;;5044236;28;20535;-48
2022/08/07 00:44:32;;;;;;;1.37;0.50;;;20.00;47.40;;;;;;5042741;28;20877;-48
2022/08/07 00:47:00;;;;;;;3.63;0.80;;;20.00;47.10;;;;;;5056109;28;20585;-48
2022/08/07 00:49:27;;;;;;;0.70;0.60;;;20.00;47.00;;;;;;5055408;28;21039;-48
2022/08/07 00:52:14;;;;;;;0.90;0.50;;;20.00;46.90;;;;;;5055833;28;20472;-48
2022/08/07 00:54:46;;;;;;;0.97;0.80;;;20.00;47.20;;;;;;5044174;28;20449;-48
2022/08/07 00:57:21;;;;;;;0.77;0.70;;;20.00;47.30;;;;;;5051290;28;21026;-47
2022/08/07 00:59:48;;;;;;;1.17;0.67;;;20.00;47.40;;;;;;5057284;28;20553;-48
2022/08/07 01:02:15;;;;;;;2.70;0.73;;;19.90;47.30;;;;;;5052992;28;20473;-47
2022/08/07 01:04:56;;;;;;;0.70;0.50;;;19.90;47.40;;;;;;5055113;28;20450;-48
2022/08/07 01:07:26;;;;;;;0.70;0.60;;;19.90;47.60;;;;;;5059757;28;20453;-48
2022/08/07 01:09:55;;;;;;;0.70;0.50;;;19.80;47.80;;;;;;5056826;28;20466;-47
2022/08/07 01:12:34;;;;;;;1.23;0.30;;;19.80;48.00;;;;;;5057238;28;20457;-48
2022/08/07 01:15:03;;;;;;;3.27;1.00;;;19.70;48.00;;;;;;5058296;28;20464;-47
2022/08/07 01:17:31;;;;;;;4.53;0.80;;;19.70;48.10;;;;;;5056000;28;20493;-47
2022/08/07 01:20:09;;;;;;;1.63;0.60;;;19.70;48.20;;;;;;5062864;28;20835;-48
2022/08/07 01:22:43;;;;;;;1.03;0.70;;;19.70;48.20;;;;;;5062808;28;21013;-48
2022/08/07 01:25:19;;;;;;;2.87;0.87;;;19.60;48.20;;;;;;5057565;28;21219;-48
2022/08/07 01:28:07;;;;;;;2.43;0.70;;;19.60;48.30;;;;;;5061939;28;20448;-48
2022/08/07 01:30:38;;;;;;;1.40;1.10;;;19.60;48.40;;;;;;5056761;28;20462;-48
2022/08/07 01:33:07;;;;;;;1.37;1.00;;;19.60;48.40;;;;;;5045241;28;20458;-47
2022/08/07 01:35:34;;;;;;;1.23;1.00;;;19.50;48.40;;;;;;5043148;28;20454;-48
2022/08/07 01:38:21;;;;;;;1.00;0.90;;;19.50;48.50;;;;;;5048873;28;20450;-48
2022/08/07 01:40:57;;;;;;;1.97;1.30;;;19.50;48.50;;;;;;5057420;28;20869;-48
2022/08/07 01:43:26;;;;;;;1.10;0.80;;;19.40;48.60;;;;;;5061490;28;20509;-47
2022/08/07 01:46:02;;;;;;;0.80;0.77;;;19.40;48.80;;;;;;5046059;28;20571;-47
2022/08/07 01:48:31;;;;;;;2.00;0.90;;;19.30;49.10;;;;;;5058796;28;20465;-47
2022/08/07 01:51:06;;;;;;;1.50;0.70;;;19.30;49.40;;;;;;5061091;28;20500;-48
2022/08/07 01:53:56;;;;;;;0.90;0.90;;;19.30;49.50;;;;;;5055162;28;20458;-48
2022/08/07 01:56:52;;;;;;;0.97;0.80;;;19.20;49.40;;;;;;5071434;28;20461;-48
2022/08/07 01:59:28;;;;;;;0.80;0.70;;;19.20;49.40;;;;;;5045385;28;20457;-48
2022/08/07 02:02:05;;;;;;;2.00;0.73;;;19.10;49.80;;;;;;5044373;28;20457;-48
2022/08/07 02:05:10;;;;;;;3.67;0.70;;;19.00;50.10;;;;;;5059860;28;20469;-49
2022/08/07 02:08:04;;;;;;;1.37;0.90;;;18.90;50.30;;;;;;5045870;28;20510;-49
2022/08/07 02:10:36;;;;;;;0.50;0.50;;;18.80;50.40;;;;;;5058067;28;20458;-50
2022/08/07 02:13:09;;;;;;;1.63;0.90;;;18.80;50.50;;;;;;5034773;28;20762;-49
2022/08/07 02:15:38;;;;;;;0.90;0.77;;;18.70;50.70;;;;;;5055391;28;20461;-50
2022/08/07 02:18:10;;;;;;;1.00;0.97;;;18.60;50.80;;;;;;5057136;28;20825;-49
2022/08/07 02:20:39;;;;;;;0.93;0.80;;;18.60;51.00;;;;;;5059980;28;20923;-49
2022/08/07 02:23:08;;;;;;;1.17;0.80;;;18.50;51.10;;;;;;5056291;28;20472;-48
2022/08/07 02:25:39;;;;;;;0.77;0.67;;;18.40;51.20;;;;;;5055586;28;21002;-48
2022/08/07 02:28:28;;;;;;;2.70;0.90;;;18.40;51.60;;;;;;5056749;28;20529;-47
2022/08/07 02:30:56;;;;;;;1.17;0.80;;;18.30;52.00;;;;;;5046812;28;20449;-48
2022/08/07 02:33:28;;;;;;;1.13;0.97;;;18.30;52.00;;;;;;5045224;28;20458;-48
2022/08/07 02:36:16;;;;;;;1.37;1.03;;;18.20;52.30;;;;;;5044746;28;20881;-48
2022/08/07 02:38:59;;;;;;;1.63;0.70;;;18.10;52.40;;;;;;5058244;28;20477;-48
2022/08/07 02:41:26;;;;;;;0.97;0.67;;;18.10;52.50;;;;;;5053213;28;20462;-48
2022/08/07 02:44:03;;;;;;;1.37;0.90;;;18.00;52.50;;;;;;5058635;28;20923;-48
2022/08/07 02:46:32;;;;;;;1.57;1.00;;;18.00;52.50;;;;;;5043082;28;21140;-47
2022/08/07 02:49:04;;;;;;;1.17;0.80;;;18.00;52.70;;;;;;5062554;28;20828;-48
2022/08/07 02:51:34;;;;;;;1.27;0.90;;;17.90;53.20;;;;;;5056258;28;20878;-47
2022/08/07 02:54:17;;;;;;;0.70;0.70;;;17.90;53.40;;;;;;5070138;28;20459;-48
2022/08/07 02:56:46;;;;;;;0.80;0.80;;;17.80;53.20;;;;;;5056321;28;21006;-48
2022/08/07 02:59:17;;;;;;;1.73;1.50;;;17.80;53.20;;;;;;5047497;28;20969;-48
2022/08/07 03:01:50;;;;;;;1.90;0.90;;;17.80;53.20;;;;;;5056644;28;20461;-47
2022/08/07 03:04:22;;;;;;;1.43;0.60;;;17.70;53.40;;;;;;5033266;28;20985;-48
2022/08/07 03:06:51;;;;;;;0.80;0.80;;;17.70;53.70;;;;;;5057525;28;20481;-48
2022/08/07 03:09:21;;;;;;;0.73;0.73;;;17.70;53.90;;;;;;5070051;28;20525;-48
2022/08/07 03:12:08;;;;;;;1.47;0.80;;;17.60;54.00;;;;;;5044841;28;20450;-48
2022/08/07 03:14:50;;;;;;;0.90;0.77;;;17.60;54.00;;;;;;5069768;28;20459;-48
2022/08/07 03:17:18;;;;;;;1.90;0.70;;;17.60;53.80;;;;;;5071345;28;20466;-48
2022/08/07 03:19:49;;;;;;;0.80;0.77;;;17.50;53.60;;;;;;5071267;28;20852;-47
2022/08/07 03:22:23;;;;;;;0.97;0.90;;;17.50;53.70;;;;;;5057880;28;20459;-48
2022/08/07 03:24:56;;;;;;;1.00;0.90;;;17.50;53.60;;;;;;5046809;28;20521;-48
2022/08/07 03:27:23;;;;;;;2.30;1.80;;;17.40;53.50;;;;;;5047222;28;20492;-47
2022/08/07 03:30:11;;;;;;;2.47;1.43;;;17.40;53.40;;;;;;5059336;28;20488;-47
2022/08/07 03:32:41;;;;;;;2.00;0.80;;;17.40;53.40;;;;;;5052154;28;20551;-47
2022/08/07 03:35:27;;;;;;;1.13;1.03;;;17.40;53.60;;;;;;5071274;28;20503;-48
2022/08/07 03:38:15;;;;;;;1.33;1.23;;;17.30;53.70;;;;;;5054893;28;20458;-48
2022/08/07 03:40:48;;;;;;;3.13;0.90;;;17.30;53.90;;;;;;5057117;28;20541;-48
2022/08/07 03:43:23;;;;;;;1.27;1.07;;;17.30;54.10;;;;;;5062058;28;20468;-48
2022/08/07 03:45:52;;;;;;;1.60;1.30;;;17.20;54.30;;;;;;5041137;28;20528;-48
2022/08/07 03:48:19;;;;;;;1.90;0.97;;;17.20;54.50;;;;;;5043472;28;20451;-48
2022/08/07 03:50:47;;;;;;;2.10;1.00;;;17.10;54.60;;;;;;5053874;28;21064;-48
2022/08/07 03:53:24;;;;;;;3.40;0.93;;;;;;;;;;5045111;28;20461;-48
2022/08/07 03:56:13;;;;;;;1.70;0.90;;;17.00;55.20;;;;;;5069082;28;20491;-48
2022/08/07 03:58:40;;;;;;;0.93;0.83;;;17.00;55.30;;;;;;5051948;28;20481;-48
2022/08/07 04:01:28;;;;;;;2.03;0.93;;;16.90;55.60;;;;;;5052574;28;20461;-47
2022/08/07 04:03:58;;;;;;;1.10;0.87;;;16.90;55.90;;;;;;5045660;28;20462;-47
2022/08/07 04:06:32;;;;;;;0.90;0.90;;;16.90;55.80;;;;;;5039441;28;20488;-48
2022/08/07 04:09:04;;;;;;;1.57;0.83;;;16.90;55.90;;;;;;5042867;28;20463;-48
2022/08/07 04:11:33;;;;;;;1.60;0.77;;;16.80;56.20;;;;;;5067790;28;20458;-47
2022/08/07 04:14:20;;;;;;;0.83;0.80;;;16.80;56.10;;;;;;5053389;28;20979;-47
2022/08/07 04:17:06;;;;;;;1.70;1.20;;;16.80;56.10;;;;;;5044389;28;20884;-48
2022/08/07 04:19:51;;;;;;;1.70;0.97;;;16.80;56.20;;;;;;5057217;28;20553;-47
2022/08/07 04:22:23;;;;;;;0.77;0.77;;;16.70;56.40;;;;;;5039352;28;20541;-48
2022/08/07 04:24:56;;;;;;;1.93;1.00;;;16.70;56.60;;;;;;5038742;28;20466;-47
2022/08/07 04:27:24;;;;;;;1.03;0.70;;;16.70;56.60;;;;;;5036101;28;20489;-48
2022/08/07 04:29:53;;;;;;;3.20;0.77;;;16.70;56.60;;;;;;5056725;28;20485;-47
2022/08/07 04:32:28;;;;;;;1.17;0.90;;;16.70;56.80;;;;;;5054060;28;20993;-48
2022/08/07 04:35:02;;;;;;;1.43;1.33;;;16.70;56.70;;;;;;5056536;28;20503;-48
2022/08/07 04:37:31;;;;;;;2.33;0.80;;;16.70;56.70;;;;;;5054412;28;20454;-48
2022/08/07 04:40:19;;;;;;;2.30;1.20;;;16.80;56.70;;;;;;5056793;28;20458;-48
2022/08/07 04:42:45;;;;;;;1.17;1.07;;;16.80;56.80;;;;;;5045235;28;20475;-49
2022/08/07 04:45:18;;;;;;;0.70;0.70;;;16.80;56.80;;;;;;5058657;28;20473;-47
2022/08/07 04:48:18;;;;;;;1.47;1.00;;;16.80;56.90;;;;;;5071388;28;20473;-49
2022/08/07 04:50:59;;;;;;;3.87;1.17;;;16.80;56.90;;;;;;5067068;28;20540;-47
2022/08/07 04:54:00;;;;;;;1.63;1.30;;;16.80;57.10;;;;;;5075196;28;20451;-48
2022/08/07 04:57:08;;;;;;;1.30;1.10;;;16.80;57.30;;;;;;5049919;28;20512;-48
2022/08/07 05:00:06;;;;;;;1.47;1.13;;;16.80;57.50;;;;;;5055694;28;20470;-48
2022/08/07 05:03:06;;;;;;;2.10;1.17;;;16.80;57.60;;;;;;5060441;28;20471;-47
2022/08/07 05:06:04;;;;;;;1.27;1.17;;;16.80;57.90;;;;;;5057821;28;20457;-48
2022/08/07 05:09:07;;;;;;;1.20;1.10;;;16.80;58.10;;;;;;5059088;28;20542;-48
2022/08/07 05:11:49;;;;;;;1.70;1.10;;;16.90;58.40;;;;;;5052367;28;20480;-48
2022/08/07 05:14:37;;;;;;;2.97;0.90;;;16.90;58.50;;;;;;5059441;28;20449;-49
2022/08/07 05:17:26;;;;;;;1.10;0.97;;;16.90;58.50;;;;;;5035226;28;21093;-48
2022/08/07 05:20:16;;;;;;;1.10;1.00;;;17.00;58.50;;;;;;5056002;28;20975;-47
2022/08/07 05:22:46;;;;;;;3.17;0.93;;;17.10;58.70;;;;;;5058536;28;20964;-47
2022/08/07 05:25:16;;;;;;;1.13;0.97;;;17.10;58.80;;;;;;5055349;28;20470;-47
2022/08/07 05:28:05;;;;;;;2.57;1.20;;;17.20;58.70;;;;;;5057415;28;20534;-48
2022/08/07 05:30:47;;;;;;;2.70;1.10;;;17.20;58.50;;;;;;5059354;28;20454;-48
2022/08/07 05:33:15;;;;;;;1.33;0.80;;;17.30;58.50;;;;;;5057760;28;20449;-48
2022/08/07 05:35:51;;;;;;;4.33;0.90;;;17.40;58.40;;;;;;5049444;28;20811;-48
2022/08/07 05:38:21;;;;;;;0.73;0.63;;;17.40;58.00;;;;;;5057854;28;21041;-48
2022/08/07 05:41:08;;;;;;;0.80;0.63;;;17.50;57.90;;;;;;5057161;28;20450;-47
2022/08/07 05:43:46;;;;;;;1.20;0.73;;;17.60;56.20;;;;;;5052621;28;20486;-48
2022/08/07 05:46:35;;;;;;;1.80;0.90;;;17.70;55.20;;;;;;5054665;28;20477;-47
2022/08/07 05:49:05;;;;;;;2.10;0.60;;;17.80;54.30;;;;;;5055627;28;20456;-47
2022/08/07 05:51:40;;;;;;;1.90;0.60;;;17.90;53.70;;;;;;5062518;28;20545;-48
2022/08/07 05:54:09;;;;;;;1.30;0.70;;;18.10;53.60;;;;;;5059856;28;20511;-47
2022/08/07 05:56:57;;;;;;;1.37;0.60;;;18.20;53.10;;;;;;5059158;28;20478;-47
2022/08/07 05:59:25;;;;;;;0.83;0.50;;;18.30;53.20;;;;;;5053217;28;20469;-47
2022/08/07 06:01:55;;;;;;;1.60;0.57;;;18.40;52.20;;;;;;5047009;28;20588;-47
2022/08/07 06:04:23;;;;;;;3.40;0.63;;;18.50;51.80;;;;;;5041763;28;20464;-48
2022/08/07 06:06:58;;;;;;;1.13;0.67;;;18.60;51.90;;;;;;5057512;28;20485;-47
2022/08/07 06:09:30;;;;;;;1.03;0.73;;;18.70;51.60;;;;;;5062102;28;20464;-47
2022/08/07 06:12:17;;;;;;;0.90;0.60;;;18.80;51.50;;;;;;5042546;28;20510;-47
2022/08/07 06:14:54;;;;;;;1.03;0.63;;;18.90;51.50;;;;;;5056089;28;20706;-47
2022/08/07 06:17:26;;;;;;;1.57;0.50;;;19.00;51.10;;;;;;5049506;28;20859;-47
2022/08/07 06:20:04;;;;;;;2.83;0.87;;;19.10;50.70;;;;;;5058629;28;20530;-47
2022/08/07 06:22:41;;;;;;;0.60;0.60;;;19.30;50.30;;;;;;5057817;28;20533;-47
2022/08/07 06:25:27;;;;;;;1.80;0.60;;;19.40;50.10;;;;;;5059079;28;20461;-47
2022/08/07 06:28:05;;;;;;;3.90;0.70;;;19.50;49.90;;;;;;5054848;28;20578;-47
2022/08/07 06:30:38;;;;;;;1.37;0.80;;;19.60;49.90;;;;;;5058286;28;21013;-47
2022/08/07 06:33:11;;;;;;;1.30;0.50;;;19.80;48.90;;;;;;5058724;28;20497;-47
2022/08/07 06:35:42;;;;;;;4.63;1.03;;;19.90;48.10;;;;;;5058215;28;21321;-47
2022/08/07 06:38:13;;;;;;;0.70;0.53;;;20.00;47.60;;;;;;5056770;28;20977;-47
2022/08/07 06:40:49;;;;;;;0.93;0.50;;;20.20;47.60;;;;;;5039395;28;20458;-47
2022/08/07 06:43:21;;;;;;;4.60;0.70;;;20.30;47.40;;;;;;5044326;28;20468;-47
2022/08/07 06:45:49;;;;;;;0.90;0.60;;;20.40;47.00;;;;;;5055735;28;21261;-47
2022/08/07 06:48:17;;;;;;;0.90;0.60;;;20.50;46.60;;;;;;5053652;28;21033;-47
2022/08/07 06:50:53;;;;;;;1.67;0.60;;;20.60;46.40;;;;;;5056896;28;20464;-47
2022/08/07 06:53:21;;;;;;;1.47;0.60;;;20.80;46.10;;;;;;5053548;28;20454;-47
2022/08/07 06:56:11;;;;;;;0.50;0.47;;;20.90;45.80;;;;;;5045531;28;20469;-47
2022/08/07 06:58:42;;;;;;;1.90;0.50;;;21.00;45.20;;;;;;5052846;28;20494;-47
2022/08/07 07:01:31;;;;;;;0.60;0.40;;;21.10;45.40;;;;;;5051399;28;20825;-47
2022/08/07 07:04:08;;;;;;;1.37;0.53;;;21.20;45.70;;;;;;5057002;28;20480;-47
2022/08/07 07:06:57;;;;;;;0.50;0.43;;;21.30;46.00;;;;;;5066922;28;20485;-47
2022/08/07 07:09:29;;;;;;;0.60;0.60;;;21.40;45.30;;;;;;5037576;28;20461;-47
2022/08/07 07:12:06;;;;;;;1.37;0.53;;;21.60;44.80;;;;;;5056436;28;20911;-48
2022/08/07 07:15:08;;;;;;;1.03;0.47;;;21.70;44.50;;;;;;5056971;28;20466;-47
2022/08/07 07:18:01;;;;;;;2.50;1.00;;;21.90;44.50;;;;;;5058139;28;20457;-47
2022/08/07 07:20:49;;;;;;;0.80;0.50;;;22.00;43.80;;;;;;5054806;28;20460;-47
2022/08/07 07:23:17;;;;;;;1.50;0.50;;;22.00;43.50;;;;;;5042699;28;20468;-48
2022/08/07 07:26:08;;;;;;;0.50;0.40;;;22.20;43.80;;;;;;5053219;28;20461;-48
2022/08/07 07:28:58;;;;;;;2.20;0.70;;;22.30;43.50;;;;;;5058147;28;20465;-48
2022/08/07 07:31:49;;;;;;;0.90;0.50;;;22.40;43.40;;;;;;5055209;28;20461;-48
2022/08/07 07:34:21;;;;;;;1.63;0.60;;;22.60;43.00;;;;;;5052845;28;20462;-48
2022/08/07 07:37:00;;;;;;;1.57;0.47;;;22.70;42.70;;;;;;5039228;28;20489;-48
2022/08/07 07:39:48;;;;;;;2.00;0.80;;;22.90;42.40;;;;;;5049623;28;20500;-47
2022/08/07 07:42:24;;;;;;;1.90;0.93;;;23.00;42.20;;;;;;5054912;28;20442;-48
2022/08/07 07:45:00;;;;;;;0.90;0.50;;;23.00;41.70;;;;;;5056174;28;20662;-48
2022/08/07 07:47:29;;;;;;;0.80;0.80;;;23.00;41.70;;;;;;5057316;28;20526;-48
2022/08/07 07:50:10;;;;;;;0.67;0.50;;;23.20;42.00;;;;;;5043861;28;21038;-48
2022/08/07 07:52:57;;;;;;;0.50;0.50;;;23.30;41.50;;;;;;5041400;28;20465;-48
2022/08/07 07:55:27;;;;;;;1.13;0.60;;;23.40;41.40;;;;;;5058131;28;20950;-48
2022/08/07 07:58:04;;;;;;;0.50;0.50;;;23.40;40.90;;;;;;5062708;28;20572;-48
2022/08/07 08:00:32;;;;;;;0.80;0.50;;;23.60;41.10;;;;;;5049074;28;20462;-48
2022/08/07 08:03:07;;;;;;;0.73;0.60;;;23.70;41.30;;;;;;5037656;28;21056;-48
2022/08/07 08:05:40;;;;;;;1.10;0.80;;;23.80;40.80;;;;;;5056936;28;20502;-48
2022/08/07 08:08:24;;;;;;;1.63;0.70;;;23.90;41.00;;;;;;5054174;28;20496;-49
2022/08/07 08:11:07;;;;;;;0.80;0.50;;;24.00;41.20;;;;;;5049276;28;20831;-48
2022/08/07 08:13:46;;;;;;;0.60;0.50;;;24.20;40.70;;;;;;5047926;28;20453;-48
2022/08/07 08:16:27;;;;;;;1.33;0.70;;;24.20;40.40;;;;;;5042324;28;20880;-48
2022/08/07 08:18:58;;;;;;;0.90;0.80;;;24.30;40.20;;;;;;5054135;28;20488;-48
2022/08/07 08:27:51;;;;;;;2.57;0.60;;;24.70;40.10;;;;;;5046879;28;20991;-49
2022/08/07 08:30:29;;;;;;;2.07;0.50;;;24.80;39.90;;;;;;5037582;28;20468;-49
2022/08/07 08:33:00;;;;;;;0.73;0.60;;;24.90;39.70;;;;;;5056632;28;20460;-49
2022/08/07 08:35:31;;;;;;;2.00;0.60;;;25.00;39.50;;;;;;5059958;28;20492;-49
2022/08/07 08:38:15;;;;;;;0.70;0.70;;;25.00;39.80;;;;;;5043844;28;20464;-49
2022/08/07 08:41:01;;;;;;;1.33;0.80;;;25.10;39.90;;;;;;5056050;28;20977;-49
2022/08/07 08:43:43;;;;;;;1.10;0.70;;;25.20;39.90;;;;;;5053789;28;20843;-49
2022/08/07 08:46:43;;;;;;;2.63;0.50;;;25.40;39.70;;;;;;5054128;28;20529;-49
2022/08/07 08:49:39;;;;;;;2.03;0.90;;;25.50;39.60;;;;;;5035565;28;20539;-49
2022/08/07 08:52:32;;;;;;;0.57;0.50;;;25.60;39.50;;;;;;5072935;28;20485;-49
2022/08/07 08:55:43;;;;;;;1.43;0.60;;;25.70;39.20;;;;;;5053361;28;20457;-49
2022/08/07 08:58:58;;;;;;;1.00;0.73;;;25.90;38.80;;;;;;5071917;28;20838;-49
2022/08/07 09:01:41;;;;;;;0.93;0.80;;;25.90;38.90;;;;;;5053529;28;20548;-49
2022/08/07 09:04:23;;;;;;;1.27;0.87;;;26.00;39.10;;;;;;5053004;28;20464;-49
2022/08/07 09:07:05;;;;;;;1.13;0.70;;;26.10;39.20;;;;;;5054752;28;20457;-49
2022/08/07 09:09:53;;;;;;;1.47;1.00;;;26.20;38.70;;;;;;5050343;28;20833;-49
2022/08/07 09:12:33;;;;;;;3.77;1.03;;;26.10;38.50;;;;;;5052511;28;20892;-48
2022/08/07 09:15:26;;;;;;;5.23;1.00;;;26.20;38.70;;;;;;5053281;28;20466;-49
2022/08/07 09:18:37;;;;;;;4.77;0.97;;;26.30;38.70;;;;;;5056271;28;20826;-49
2022/08/07 09:21:54;;;;;;;4.90;1.40;;;26.40;38.80;;;;;;5058970;28;20525;-49
2022/08/07 09:24:57;;;;;;;1.37;0.63;;;26.50;38.80;;;;;;5041341;28;20953;-48
2022/08/07 09:27:39;;;;;;;2.33;1.27;;;26.60;39.10;;;;;;5060062;28;20581;-48
2022/08/07 09:30:35;;;;;;;1.00;1.00;;;26.70;39.30;;;;;;5046171;28;20458;-49
2022/08/07 09:33:37;;;;;;;4.20;2.40;;;26.80;39.50;;;;;;5060816;28;20462;-48
2022/08/07 09:36:38;;;;;;;1.80;1.67;;;26.90;39.00;;;;;;5056185;28;20457;-48
2022/08/07 09:39:14;;;;;;;1.10;1.00;;;27.10;38.90;;;;;;5056729;28;20892;-48
2022/08/07 09:42:21;;;;;;;2.13;1.17;;;27.20;38.60;;;;;;5063087;28;20804;-48
2022/08/07 09:45:28;;;;;;;1.23;0.73;;;27.20;38.80;;;;;;5044088;28;20888;-48
2022/08/07 09:48:31;;;;;;;1.77;1.00;;;27.40;38.80;;;;;;5058647;28;20554;-48
2022/08/07 09:51:42;;;;;;;1.63;0.90;;;27.50;38.20;;;;;;5062568;28;20543;-48
2022/08/07 09:54:39;;;;;;;1.27;1.10;;;27.70;38.10;;;;;;5073464;28;20855;-48
2022/08/07 09:57:39;;;;;;;1.10;1.10;;;27.90;37.50;;;;;;5060087;28;20830;-48
2022/08/07 10:00:20;;;;;;;1.53;0.80;;;28.00;37.70;;;;;;5060385;28;20464;-48
2022/08/07 10:03:26;;;;;;;4.27;1.00;;;28.00;37.50;;;;;;5056826;28;20557;-48
2022/08/07 10:06:38;;;;;;;0.80;0.80;;;28.20;37.50;;;;;;5061571;28;20656;-48
2022/08/07 10:09:14;;;;;;;1.30;1.20;;;28.30;37.30;;;;;;5074924;28;20494;-48
2022/08/07 10:12:25;;;;;;;1.00;0.90;;;28.40;37.10;;;;;;5060176;28;20453;-48
2022/08/07 10:15:14;;;;;;;1.00;0.90;;;28.50;37.40;;;;;;5055267;28;20294;-49
2022/08/07 10:18:21;;;;;;;2.13;1.17;;;28.60;36.90;;;;;;5058185;28;20218;-48
2022/08/07 10:21:28;;;;;;;1.47;1.10;;;28.70;36.90;;;;;;5061829;28;20739;-48
2022/08/07 10:24:23;;;;;;;1.50;1.00;;;28.80;36.90;;;;;;5051356;28;20207;-49
2022/08/07 10:27:25;;;;;;;2.80;1.00;;;28.70;36.50;;;;;;5056812;28;20205;-49
2022/08/07 10:30:23;;;;;;;2.50;0.83;;;28.80;36.60;;;;;;5053553;28;20304;-49
2022/08/07 10:33:01;;;;;;;0.70;0.70;;;28.80;36.60;;;;;;5053703;28;20230;-48
2022/08/07 10:35:45;;;;;;;1.43;1.23;;;28.70;36.60;;;;;;5057183;28;20207;-49
2022/08/07 10:38:29;;;;;;;1.90;1.10;;;28.70;36.70;;;;;;5045357;28;20285;-48
2022/08/07 10:41:19;;;;;;;2.00;1.20;;;28.60;36.80;;;;;;5061048;28;20209;-48
2022/08/07 10:44:23;;;;;;;1.07;0.97;;;28.40;37.00;;;;;;5048726;28;20210;-49
2022/08/07 10:47:21;;;;;;;2.20;1.33;;;28.30;37.50;;;;;;5043314;28;20624;-48
2022/08/07 10:50:23;;;;;;;2.90;1.00;;;28.00;37.30;;;;;;5042023;28;20821;-48
2022/08/07 10:53:26;;;;;;;2.70;1.33;;;27.90;37.70;;;;;;5055429;28;20244;-49
2022/08/07 10:56:31;;;;;;;1.10;1.07;;;27.80;37.90;;;;;;5057795;28;20470;-49
2022/08/07 10:59:23;;;;;;;1.40;1.00;;;27.80;38.30;;;;;;5056572;28;20478;-48
2022/08/07 11:02:00;;;;;;;0.90;0.80;;;27.70;38.10;;;;;;5056758;28;20456;-48
2022/08/07 11:04:58;;;;;;;1.10;0.80;;;27.80;37.70;;;;;;5056911;28;20456;-48
2022/08/07 11:07:41;;;;;;;3.00;1.20;;;27.70;37.50;;;;;;5047285;28;20456;-48
2022/08/07 11:10:36;;;;;;;1.53;0.97;;;27.70;38.00;;;;;;5058083;28;20905;-48
2022/08/07 11:13:24;;;;;;;0.90;0.90;;;27.60;37.10;;;;;;5049656;28;20554;-48
2022/08/07 11:16:26;;;;;;;2.20;0.97;;;27.50;37.00;;;;;;5046947;28;20468;-48
2022/08/07 11:19:23;;;;;;;1.03;1.00;;;27.30;36.80;;;;;;5043421;28;20457;-48
2022/08/07 11:22:16;;;;;;;1.40;1.10;;;27.20;37.40;;;;;;5055339;28;20826;-48
2022/08/07 11:25:14;;;;;;;1.10;1.00;;;27.10;37.60;;;;;;5054034;28;20246;-49
2022/08/07 11:27:44;;;;;;;2.43;1.00;;;27.00;37.20;;;;;;5055736;28;20456;-49
2022/08/07 11:30:50;;;;;;;1.30;1.10;;;26.90;37.80;;;;;;5056954;28;20445;-49
2022/08/07 11:33:41;;;;;;;1.10;0.97;;;26.90;37.10;;;;;;5072046;28;20520;-49
2022/08/07 11:36:23;;;;;;;2.43;1.00;;;26.80;37.10;;;;;;5055703;28;20457;-49
2022/08/07 11:38:56;;;;;;;1.00;0.90;;;26.80;37.10;;;;;;5055227;28;20460;-49
2022/08/07 11:41:31;;;;;;;1.20;1.10;;;26.80;37.30;;;;;;5053556;28;20895;-49
2022/08/07 11:44:54;;;;;;;1.87;0.90;;;26.80;37.80;;;;;;5056658;28;20465;-49
2022/08/07 11:48:11;;;;;;;1.10;1.10;;;26.70;37.60;;;;;;5061090;28;20488;-49
2022/08/07 11:50:58;;;;;;;3.60;1.20;;;26.60;37.20;;;;;;5056607;28;20460;-49
2022/08/07 11:53:36;;;;;;;2.90;1.07;;;26.60;37.20;;;;;;5059231;28;20452;-49
2022/08/07 11:56:24;;;;;;;1.20;1.10;;;26.50;37.40;;;;;;5053260;28;21049;-49
2022/08/07 11:59:44;;;;;;;1.10;1.00;;;26.50;37.50;;;;;;5043278;28;20468;-49
2022/08/07 12:02:33;;;;;;;1.17;1.07;;;26.50;37.90;;;;;;5037162;28;20446;-49
2022/08/07 12:05:14;;;;;;;0.73;0.73;;;26.50;38.00;;;;;;5056451;28;20561;-49
2022/08/07 12:08:09;;;;;;;4.97;0.83;;;26.40;38.00;;;;;;5069346;28;20473;-49
2022/08/07 12:11:09;;;;;;;1.00;0.90;;;26.40;37.70;;;;;;5054698;28;20480;-49
2022/08/07 12:14:07;;;;;;;1.03;1.00;;;26.40;37.20;;;;;;5055006;28;20523;-50
2022/08/07 12:16:45;;;;;;;1.30;1.20;;;26.40;37.30;;;;;;5058462;28;20473;-50
2022/08/07 12:19:35;;;;;;;2.43;1.03;;;26.30;37.10;;;;;;5059338;28;20608;-50
2022/08/07 12:22:43;;;;;;;0.77;0.77;;;26.30;37.70;;;;;;5031268;28;20495;-50
2022/08/07 12:28:46;;;;;;;3.50;1.00;;;26.30;37.80;;;;;;5040891;28;20832;-49
2022/08/07 12:31:37;;;;;;;1.60;1.50;;;26.30;37.00;;;;;;5034225;28;20839;-49
2022/08/07 12:34:28;;;;;;;1.83;1.17;;;26.40;36.90;;;;;;5072178;28;20819;-49
2022/08/07 12:36:58;;;;;;;0.90;0.90;;;26.30;37.70;;;;;;5071899;28;20525;-50
2022/08/07 12:39:27;;;;;;;1.80;1.00;;;26.40;38.10;;;;;;5058383;28;20456;-50
2022/08/07 12:42:18;;;;;;;1.50;1.10;;;26.40;38.20;;;;;;5057878;28;21037;-50
2022/08/07 12:44:56;;;;;;;1.60;1.07;;;26.40;37.60;;;;;;5054133;28;20894;-50
2022/08/07 12:47:50;;;;;;;1.57;0.90;;;26.50;37.40;;;;;;5040047;28;20468;-50
2022/08/07 12:50:34;;;;;;;0.90;0.90;;;26.50;37.20;;;;;;5056818;28;20472;-50
2022/08/07 12:53:37;;;;;;;0.77;0.77;;;26.60;37.20;;;;;;5057841;28;20667;-49
2022/08/07 12:56:36;;;;;;;1.30;1.20;;;26.60;36.30;;;;;;5053836;28;20444;-49
2022/08/07 12:59:05;;;;;;;1.50;1.40;;;26.70;36.90;;;;;;5038754;28;20545;-49
2022/08/07 13:02:11;;;;;;;1.20;1.10;;;26.60;37.00;;;;;;5056643;28;20537;-49
2022/08/07 13:05:03;;;;;;;1.23;0.90;;;26.70;37.00;;;;;;5057371;28;20791;-50
2022/08/07 13:07:46;;;;;;;0.80;0.80;;;26.60;37.00;;;;;;5058831;28;20459;-50
2022/08/07 13:10:59;;;;;;;0.90;0.90;;;26.70;37.20;;;;;;5058031;28;20453;-50
2022/08/07 13:13:55;;;;;;;1.93;1.00;;;26.70;36.90;;;;;;5064336;28;20562;-49
2022/08/07 13:16:29;;;;;;;1.53;1.00;;;26.70;36.70;;;;;;5059336;28;20593;-50
2022/08/07 13:19:44;;;;;;;2.50;0.90;;;26.70;36.70;;;;;;5057146;28;20504;-50
2022/08/07 13:22:31;;;;;;;2.60;0.90;;;26.70;36.40;;;;;;5042826;28;20504;-50
2022/08/07 13:25:18;;;;;;;0.80;0.80;;;26.80;36.20;;;;;;5061939;28;20505;-50
2022/08/07 13:28:01;;;;;;;0.70;0.70;;;26.70;35.80;;;;;;5041089;28;20501;-50
2022/08/07 13:30:46;;;;;;;0.87;0.70;;;26.70;35.30;;;;;;5054766;28;20457;-50
2022/08/07 13:33:27;;;;;;;0.70;0.70;;;26.70;35.10;;;;;;5077072;28;20456;-50
2022/08/07 13:36:29;;;;;;;1.57;0.70;;;26.70;34.90;;;;;;5057874;28;20453;-50
2022/08/07 13:39:05;;;;;;;1.90;0.63;;;26.80;35.10;;;;;;5057369;28;21329;-50
2022/08/07 13:41:43;;;;;;;0.70;0.70;;;26.80;35.50;;;;;;5053965;28;20463;-49
2022/08/07 13:44:18;;;;;;;0.97;0.60;;;26.80;35.10;;;;;;5038216;28;20543;-49
2022/08/07 13:46:57;;;;;;;1.23;1.00;;;26.80;35.10;;;;;;5067062;28;20461;-50
2022/08/07 13:49:32;;;;;;;0.90;0.90;;;26.80;35.30;;;;;;5050123;28;20481;-50
2022/08/07 13:52:20;;;;;;;1.00;0.90;;;26.80;35.40;;;;;;5047852;28;20535;-50
2022/08/07 13:55:05;;;;;;;0.70;0.70;;;26.80;35.40;;;;;;5031126;28;20882;-49
2022/08/07 13:57:34;;;;;;;0.63;0.63;;;26.90;35.40;;;;;;5041223;28;21016;-50
2022/08/07 14:00:07;;;;;;;0.80;0.60;;;26.90;35.20;;;;;;5053307;28;20903;-50
2022/08/07 14:02:54;;;;;;;2.93;1.27;;;26.80;34.90;;;;;;5060064;28;20212;-50
2022/08/07 14:05:23;;;;;;;1.13;0.83;;;26.90;34.90;;;;;;5056268;28;20465;-50
2022/08/07 14:08:05;;;;;;;0.80;0.80;;;26.90;35.10;;;;;;5059659;28;20497;-50
2022/08/07 14:10:39;;;;;;;2.93;0.70;;;26.90;35.20;;;;;;5049506;28;20638;-49
2022/08/07 14:13:12;;;;;;;1.07;0.80;;;26.90;35.10;;;;;;5060631;28;20441;-49
2022/08/07 14:15:49;;;;;;;0.90;0.90;;;27.00;34.60;;;;;;5049097;28;20450;-50